sensor_id;sensor_type;location;lat;lon;timestamp;pressure;altitude;pressure_sealevel;temperature;humidity
72921;BME280;61064;51.654;5.476;2022-12-29T00:01:41;100106.06;;;11.55;87.67
72921;BME280;61064;51.654;5.476;2022-12-29T00:04:06;100097.28;;;11.47;87.67
72921;BME280;61064;51.654;5.476;2022-12-29T00:06:32;100086.53;;;11.55;87.67
72921;BME280;61064;51.654;5.476;2022-12-29T00:08:58;100096.28;;;11.54;87.79
72921;BME280;61064;51.654;5.476;2022-12-29T00:11:26;100094.56;;;11.53;87.78
72921;BME280;61064;51.654;5.476;2022-12-29T00:13:52;100077.69;;;11.48;87.73
72921;BME280;61064;51.654;5.476;2022-12-29T00:16:38;100094.59;;;11.47;87.75
72921;BME280;61064;51.654;5.476;2022-12-29T00:19:05;100096.34;;;11.51;87.81
72921;BME280;61064;51.654;5.476;2022-12-29T00:21:30;100070.69;;;11.40;87.79
72921;BME280;61064;51.654;5.476;2022-12-29T00:24:16;100050.28;;;11.42;87.63
72921;BME280;61064;51.654;5.476;2022-12-29T00:29:49;100066.19;;;11.46;87.22
72921;BME280;61064;51.654;5.476;2022-12-29T00:32:33;100060.00;;;11.44;87.32
72921;BME280;61064;51.654;5.476;2022-12-29T00:35:45;100052.06;;;11.38;87.38
72921;BME280;61064;51.654;5.476;2022-12-29T00:38:10;100061.03;;;11.31;87.27
72921;BME280;61064;51.654;5.476;2022-12-29T00:40:54;100070.81;;;11.26;87.50
72921;BME280;61064;51.654;5.476;2022-12-29T00:43:38;100052.31;;;11.14;87.68
72921;BME280;61064;51.654;5.476;2022-12-29T00:46:22;100033.72;;;11.06;87.97
72921;BME280;61064;51.654;5.476;2022-12-29T00:48:47;100035.53;;;11.03;88.10
72921;BME280;61064;51.654;5.476;2022-12-29T00:51:31;100025.84;;;10.93;88.32
72921;BME280;61064;51.654;5.476;2022-12-29T00:53:57;100026.81;;;10.82;88.38
72921;BME280;61064;51.654;5.476;2022-12-29T00:56:22;100025.03;;;10.83;88.86
72921;BME280;61064;51.654;5.476;2022-12-29T00:58:47;100027.75;;;10.77;88.82
72921;BME280;61064;51.654;5.476;2022-12-29T01:01:13;100025.13;;;10.75;89.04
72921;BME280;61064;51.654;5.476;2022-12-29T01:03:39;100025.16;;;10.69;89.15
72921;BME280;61064;51.654;5.476;2022-12-29T01:06:07;100004.75;;;10.67;89.31
72921;BME280;61064;51.654;5.476;2022-12-29T01:08:33;100031.34;;;10.71;89.36
72921;BME280;61064;51.654;5.476;2022-12-29T01:11:08;100021.56;;;10.70;89.69
72921;BME280;61064;51.654;5.476;2022-12-29T01:13:34;100001.22;;;10.68;89.77
72921;BME280;61064;51.654;5.476;2022-12-29T01:16:00;100007.44;;;10.68;89.85
72921;BME280;61064;51.654;5.476;2022-12-29T01:18:26;99995.06;;;10.64;89.95
72921;BME280;61064;51.654;5.476;2022-12-29T01:20:58;99985.31;;;10.60;89.88
72921;BME280;61064;51.654;5.476;2022-12-29T01:23:23;99998.53;;;10.71;89.84
72921;BME280;61064;51.654;5.476;2022-12-29T01:25:49;99994.13;;;10.65;90.04
72921;BME280;61064;51.654;5.476;2022-12-29T01:28:14;100008.22;;;10.76;90.07
72921;BME280;61064;51.654;5.476;2022-12-29T01:30:40;99985.25;;;10.69;90.00
72921;BME280;61064;51.654;5.476;2022-12-29T01:33:05;100005.47;;;10.89;90.07
72921;BME280;61064;51.654;5.476;2022-12-29T01:35:30;99985.97;;;10.88;89.91
72921;BME280;61064;51.654;5.476;2022-12-29T01:37:56;99982.38;;;10.94;89.88
72921;BME280;61064;51.654;5.476;2022-12-29T01:40:21;99971.72;;;10.95;89.88
72921;BME280;61064;51.654;5.476;2022-12-29T01:42:47;99968.16;;;10.95;89.58
72921;BME280;61064;51.654;5.476;2022-12-29T01:45:13;99984.88;;;11.10;89.64
72921;BME280;61064;51.654;5.476;2022-12-29T01:47:55;99972.44;;;11.12;89.49
72921;BME280;61064;51.654;5.476;2022-12-29T01:50:43;99974.16;;;11.18;89.18
72921;BME280;61064;51.654;5.476;2022-12-29T01:53:16;99993.63;;;11.23;89.40
72921;BME280;61064;51.654;5.476;2022-12-29T01:55:51;99969.66;;;11.24;88.99
72921;BME280;61064;51.654;5.476;2022-12-29T01:58:21;99971.41;;;11.27;88.77
72921;BME280;61064;51.654;5.476;2022-12-29T02:00:48;99964.28;;;11.29;88.46
72921;BME280;61064;51.654;5.476;2022-12-29T02:03:14;99939.50;;;11.22;88.46
72921;BME280;61064;51.654;5.476;2022-12-29T02:05:58;99943.88;;;11.26;88.00
72921;BME280;61064;51.654;5.476;2022-12-29T02:08:28;99969.44;;;11.46;88.18
72921;BME280;61064;51.654;5.476;2022-12-29T02:10:55;99971.16;;;11.50;87.78
72921;BME280;61064;51.654;5.476;2022-12-29T02:13:26;99972.84;;;11.57;87.34
72921;BME280;61064;51.654;5.476;2022-12-29T02:25:00;99982.50;;;11.65;86.78
72921;BME280;61064;51.654;5.476;2022-12-29T02:27:40;99998.47;;;11.67;86.58
72921;BME280;61064;51.654;5.476;2022-12-29T02:33:28;99988.69;;;11.69;86.20
72921;BME280;61064;51.654;5.476;2022-12-29T02:36:21;99974.47;;;11.73;86.16
72921;BME280;61064;51.654;5.476;2022-12-29T02:38:59;99979.75;;;11.76;86.04
72921;BME280;61064;51.654;5.476;2022-12-29T02:47:26;99963.78;;;11.72;85.79
72921;BME280;61064;51.654;5.476;2022-12-29T02:50:35;99959.34;;;11.75;85.74
72921;BME280;61064;51.654;5.476;2022-12-29T02:53:05;99962.06;;;11.66;86.00
72921;BME280;61064;51.654;5.476;2022-12-29T02:55:31;99970.03;;;11.69;85.73
72921;BME280;61064;51.654;5.476;2022-12-29T02:58:26;99971.81;;;11.73;85.56
72921;BME280;61064;51.654;5.476;2022-12-29T03:09:30;99966.50;;;11.70;85.57
72921;BME280;61064;51.654;5.476;2022-12-29T03:12:07;99963.84;;;11.67;85.68
72921;BME280;61064;51.654;5.476;2022-12-29T03:14:58;99964.78;;;11.64;85.41
72921;BME280;61064;51.654;5.476;2022-12-29T03:17:57;99938.34;;;11.48;85.72
72921;BME280;61064;51.654;5.476;2022-12-29T03:20:27;99933.91;;;11.45;85.46
72921;BME280;61064;51.654;5.476;2022-12-29T03:23:00;99948.06;;;11.52;85.59
72921;BME280;61064;51.654;5.476;2022-12-29T03:25:33;99939.31;;;11.42;85.44
72921;BME280;61064;51.654;5.476;2022-12-29T03:28:10;99978.13;;;11.60;85.37
72921;BME280;61064;51.654;5.476;2022-12-29T03:30:40;99929.59;;;11.35;85.32
72921;BME280;61064;51.654;5.476;2022-12-29T03:33:12;99966.66;;;11.55;85.38
72921;BME280;61064;51.654;5.476;2022-12-29T03:35:41;99948.00;;;11.55;85.33
72921;BME280;61064;51.654;5.476;2022-12-29T03:41:05;99953.38;;;11.52;85.46
72921;BME280;61064;51.654;5.476;2022-12-29T03:43:33;99956.94;;;11.52;85.18
72921;BME280;61064;51.654;5.476;2022-12-29T03:45:58;99939.25;;;11.44;85.39
72921;BME280;61064;51.654;5.476;2022-12-29T03:48:24;99965.88;;;11.47;85.34
72921;BME280;61064;51.654;5.476;2022-12-29T03:50:49;99942.88;;;11.38;85.35
72921;BME280;61064;51.654;5.476;2022-12-29T03:53:14;99959.69;;;11.43;85.26
72921;BME280;61064;51.654;5.476;2022-12-29T03:55:40;99944.63;;;11.42;85.11
72921;BME280;61064;51.654;5.476;2022-12-29T03:58:05;99946.41;;;11.40;85.10
72921;BME280;61064;51.654;5.476;2022-12-29T04:00:31;99956.16;;;11.41;85.11
72921;BME280;61064;51.654;5.476;2022-12-29T04:02:56;99973.94;;;11.39;85.27
72921;BME280;61064;51.654;5.476;2022-12-29T04:05:22;99955.28;;;11.39;85.23
72921;BME280;61064;51.654;5.476;2022-12-29T04:07:47;99966.00;;;11.36;85.30
72921;BME280;61064;51.654;5.476;2022-12-29T04:10:13;99960.69;;;11.33;85.48
72921;BME280;61064;51.654;5.476;2022-12-29T04:12:38;99971.31;;;11.35;85.33
72921;BME280;61064;51.654;5.476;2022-12-29T04:15:04;99982.03;;;11.27;85.15
72921;BME280;61064;51.654;5.476;2022-12-29T04:17:30;99965.22;;;11.25;85.09
72921;BME280;61064;51.654;5.476;2022-12-29T04:19:55;99969.63;;;11.29;85.23
72921;BME280;61064;51.654;5.476;2022-12-29T04:22:40;99971.44;;;11.22;85.21
72921;BME280;61064;51.654;5.476;2022-12-29T04:25:06;99971.44;;;11.22;85.43
72921;BME280;61064;51.654;5.476;2022-12-29T04:27:32;99968.84;;;11.15;85.19
72921;BME280;61064;51.654;5.476;2022-12-29T04:29:57;99985.72;;;11.17;85.27
72921;BME280;61064;51.654;5.476;2022-12-29T04:32:23;99972.50;;;11.08;85.29
72921;BME280;61064;51.654;5.476;2022-12-29T04:34:48;99958.41;;;10.94;85.08
72921;BME280;61064;51.654;5.476;2022-12-29T04:37:13;99944.28;;;10.87;85.38
72921;BME280;61064;51.654;5.476;2022-12-29T04:39:39;99970.75;;;11.04;85.20
72921;BME280;61064;51.654;5.476;2022-12-29T04:42:04;99992.91;;;11.04;85.19
72921;BME280;61064;51.654;5.476;2022-12-29T04:44:29;99984.09;;;11.01;84.98
72921;BME280;61064;51.654;5.476;2022-12-29T04:46:55;99969.97;;;10.93;85.21
72921;BME280;61064;51.654;5.476;2022-12-29T04:49:20;99954.06;;;10.87;85.20
72921;BME280;61064;51.654;5.476;2022-12-29T04:51:45;99982.41;;;10.92;85.01
72921;BME280;61064;51.654;5.476;2022-12-29T04:54:11;99976.22;;;10.87;85.07
72921;BME280;61064;51.654;5.476;2022-12-29T04:56:36;99990.41;;;10.91;84.99
72921;BME280;61064;51.654;5.476;2022-12-29T04:59:01;99989.56;;;10.84;84.85
72921;BME280;61064;51.654;5.476;2022-12-29T05:01:27;99987.03;;;10.67;84.65
72921;BME280;61064;51.654;5.476;2022-12-29T05:03:52;100025.94;;;10.83;84.77
72921;BME280;61064;51.654;5.476;2022-12-29T05:06:17;100011.75;;;10.81;84.19
72921;BME280;61064;51.654;5.476;2022-12-29T05:08:43;100011.72;;;10.86;84.22
72921;BME280;61064;51.654;5.476;2022-12-29T05:11:08;100025.94;;;10.83;84.23
72921;BME280;61064;51.654;5.476;2022-12-29T05:13:34;100015.31;;;10.76;84.09
72921;BME280;61064;51.654;5.476;2022-12-29T05:15:59;100036.56;;;10.83;84.00
72921;BME280;61064;51.654;5.476;2022-12-29T05:18:24;100023.44;;;10.62;83.98
72921;BME280;61064;51.654;5.476;2022-12-29T05:20:50;100005.81;;;10.48;83.84
72921;BME280;61064;51.654;5.476;2022-12-29T05:23:15;100044.66;;;10.67;83.96
72921;BME280;61064;51.654;5.476;2022-12-29T05:25:42;100056.16;;;10.72;83.97
72921;BME280;61064;51.654;5.476;2022-12-29T05:28:08;100065.06;;;10.69;83.88
72921;BME280;61064;51.654;5.476;2022-12-29T05:30:33;100047.38;;;10.62;83.75
72921;BME280;61064;51.654;5.476;2022-12-29T05:32:59;100057.13;;;10.63;83.69
72921;BME280;61064;51.654;5.476;2022-12-29T05:35:24;100042.09;;;10.55;83.78
72921;BME280;61064;51.654;5.476;2022-12-29T05:37:50;100067.75;;;10.62;83.48
72921;BME280;61064;51.654;5.476;2022-12-29T05:40:15;100049.22;;;10.50;83.36
72921;BME280;61064;51.654;5.476;2022-12-29T05:42:40;100073.06;;;10.62;83.34
72921;BME280;61064;51.654;5.476;2022-12-29T05:45:06;100065.94;;;10.67;83.08
72921;BME280;61064;51.654;5.476;2022-12-29T05:47:32;100058.03;;;10.58;82.99
72921;BME280;61064;51.654;5.476;2022-12-29T05:49:58;100058.00;;;10.62;82.66
72921;BME280;61064;51.654;5.476;2022-12-29T05:52:23;100034.19;;;10.42;82.87
72921;BME280;61064;51.654;5.476;2022-12-29T05:54:49;100048.31;;;10.51;82.87
72921;BME280;61064;51.654;5.476;2022-12-29T05:57:14;100078.41;;;10.62;82.60
72921;BME280;61064;51.654;5.476;2022-12-29T05:59:39;100050.09;;;10.52;82.54
72921;BME280;61064;51.654;5.476;2022-12-29T06:02:05;100049.22;;;10.51;82.28
72921;BME280;61064;51.654;5.476;2022-12-29T06:04:30;100058.03;;;10.56;82.26
72921;BME280;61064;51.654;5.476;2022-12-29T06:06:57;100081.88;;;10.74;82.08
72921;BME280;61064;51.654;5.476;2022-12-29T06:09:22;100055.34;;;10.61;81.96
72921;BME280;61064;51.654;5.476;2022-12-29T06:11:48;100090.75;;;10.72;81.90
72921;BME280;61064;51.654;5.476;2022-12-29T06:14:13;100076.56;;;10.73;81.82
72921;BME280;61064;51.654;5.476;2022-12-29T06:16:39;100078.28;;;10.77;81.45
72921;BME280;61064;51.654;5.476;2022-12-29T06:19:04;100072.06;;;10.81;81.34
72921;BME280;61064;51.654;5.476;2022-12-29T06:21:29;100034.94;;;10.63;80.81
72921;BME280;61064;51.654;5.476;2022-12-29T06:23:55;100060.50;;;10.82;80.80
72921;BME280;61064;51.654;5.476;2022-12-29T06:26:20;100062.31;;;10.80;80.82
72921;BME280;61064;51.654;5.476;2022-12-29T06:28:45;100082.69;;;10.82;80.78
72921;BME280;61064;51.654;5.476;2022-12-29T06:31:11;100061.44;;;10.76;80.71
72921;BME280;61064;51.654;5.476;2022-12-29T06:33:37;100035.00;;;10.58;80.46
72921;BME280;61064;51.654;5.476;2022-12-29T06:36:03;100060.63;;;10.68;80.61
72921;BME280;61064;51.654;5.476;2022-12-29T06:38:28;100065.91;;;10.74;80.25
72921;BME280;61064;51.654;5.476;2022-12-29T06:40:54;100056.16;;;10.70;80.34
72921;BME280;61064;51.654;5.476;2022-12-29T06:43:20;100030.59;;;10.51;80.28
72921;BME280;61064;51.654;5.476;2022-12-29T06:45:46;100071.25;;;10.70;80.75
72921;BME280;61064;51.654;5.476;2022-12-29T06:48:11;100080.97;;;10.71;80.46
72921;BME280;61064;51.654;5.476;2022-12-29T06:50:36;100073.97;;;10.64;80.13
72921;BME280;61064;51.654;5.476;2022-12-29T06:53:02;100041.22;;;10.53;80.21
72921;BME280;61064;51.654;5.476;2022-12-29T06:55:27;100073.94;;;10.68;80.30
72921;BME280;61064;51.654;5.476;2022-12-29T06:57:56;100069.47;;;10.72;79.79
72921;BME280;61064;51.654;5.476;2022-12-29T07:00:23;100079.22;;;10.74;79.90
72921;BME280;61064;51.654;5.476;2022-12-29T07:02:49;100049.09;;;10.66;80.08
72921;BME280;61064;51.654;5.476;2022-12-29T07:05:15;100063.25;;;10.73;79.83
72921;BME280;61064;51.654;5.476;2022-12-29T07:07:40;100067.69;;;10.75;79.97
72921;BME280;61064;51.654;5.476;2022-12-29T07:10:07;100068.53;;;10.76;79.79
72921;BME280;61064;51.654;5.476;2022-12-29T07:12:32;100078.28;;;10.77;79.78
72921;BME280;61064;51.654;5.476;2022-12-29T07:14:57;100089.78;;;10.83;79.83
72921;BME280;61064;51.654;5.476;2022-12-29T07:17:23;100058.00;;;10.61;79.85
72921;BME280;61064;51.654;5.476;2022-12-29T07:19:48;100093.31;;;10.84;79.50
72921;BME280;61064;51.654;5.476;2022-12-29T07:22:13;100065.06;;;10.65;79.62
72921;BME280;61064;51.654;5.476;2022-12-29T07:24:39;100086.31;;;10.75;79.32
72921;BME280;61064;51.654;5.476;2022-12-29T07:27:04;100117.19;;;10.95;79.23
72921;BME280;61064;51.654;5.476;2022-12-29T07:29:30;100076.50;;;10.76;79.04
72921;BME280;61064;51.654;5.476;2022-12-29T07:31:55;100087.22;;;10.70;78.97
72921;BME280;61064;51.654;5.476;2022-12-29T07:34:20;100096.06;;;10.72;78.73
72921;BME280;61064;51.654;5.476;2022-12-29T07:36:46;100094.28;;;10.74;78.87
72921;BME280;61064;51.654;5.476;2022-12-29T07:39:11;100118.13;;;10.88;78.54
72921;BME280;61064;51.654;5.476;2022-12-29T07:41:37;100134.13;;;10.86;78.60
72921;BME280;61064;51.654;5.476;2022-12-29T07:44:02;100119.03;;;10.85;78.34
72921;BME280;61064;51.654;5.476;2022-12-29T07:46:28;100119.97;;;10.81;78.33
72921;BME280;61064;51.654;5.476;2022-12-29T07:48:53;100104.03;;;10.73;78.23
72921;BME280;61064;51.654;5.476;2022-12-29T07:51:18;100131.53;;;10.74;78.31
72921;BME280;61064;51.654;5.476;2022-12-29T07:53:44;100144.81;;;10.77;78.00
72921;BME280;61064;51.654;5.476;2022-12-29T07:56:09;100097.94;;;10.55;77.89
72921;BME280;61064;51.654;5.476;2022-12-29T07:58:35;100128.91;;;10.65;77.80
72921;BME280;61064;51.654;5.476;2022-12-29T08:01:00;100142.13;;;10.77;77.85
72921;BME280;61064;51.654;5.476;2022-12-29T08:03:26;100135.13;;;10.70;77.86
72921;BME280;61064;51.654;5.476;2022-12-29T08:05:51;100111.25;;;10.49;77.77
72921;BME280;61064;51.654;5.476;2022-12-29T08:08:17;100155.44;;;10.78;77.63
72921;BME280;61064;51.654;5.476;2022-12-29T08:10:43;100127.16;;;10.59;77.52
72921;BME280;61064;51.654;5.476;2022-12-29T08:13:08;100107.72;;;10.51;77.66
72921;BME280;61064;51.654;5.476;2022-12-29T08:15:34;100144.88;;;10.69;77.83
72921;BME280;61064;51.654;5.476;2022-12-29T08:17:59;100156.41;;;10.68;77.74
72921;BME280;61064;51.654;5.476;2022-12-29T08:20:26;100176.75;;;10.74;77.88
72921;BME280;61064;51.654;5.476;2022-12-29T08:22:52;100171.44;;;10.71;77.98
72921;BME280;61064;51.654;5.476;2022-12-29T08:25:17;100162.63;;;10.64;77.94
72921;BME280;61064;51.654;5.476;2022-12-29T08:27:44;100162.63;;;10.64;77.89
72921;BME280;61064;51.654;5.476;2022-12-29T08:30:10;100147.56;;;10.54;78.17
72921;BME280;61064;51.654;5.476;2022-12-29T08:32:35;100120.13;;;10.49;77.85
72921;BME280;61064;51.654;5.476;2022-12-29T08:35:01;100149.28;;;10.66;77.99
72921;BME280;61064;51.654;5.476;2022-12-29T08:37:26;100162.59;;;10.66;77.89
72921;BME280;61064;51.654;5.476;2022-12-29T08:39:52;100132.47;;;10.61;77.68
72921;BME280;61064;51.654;5.476;2022-12-29T08:42:17;100141.34;;;10.63;77.75
72921;BME280;61064;51.654;5.476;2022-12-29T08:44:45;100136.88;;;10.65;77.55
72921;BME280;61064;51.654;5.476;2022-12-29T08:47:10;100136.03;;;10.64;77.39
72921;BME280;61064;51.654;5.476;2022-12-29T08:49:36;100105.03;;;10.54;77.42
72921;BME280;61064;51.654;5.476;2022-12-29T08:52:02;100171.38;;;10.83;77.22
72921;BME280;61064;51.654;5.476;2022-12-29T08:54:27;100156.28;;;10.90;76.61
72921;BME280;61064;51.654;5.476;2022-12-29T08:56:53;100155.34;;;10.94;76.54
72921;BME280;61064;51.654;5.476;2022-12-29T08:59:19;100137.59;;;10.96;76.44
72921;BME280;61064;51.654;5.476;2022-12-29T09:01:44;100170.41;;;11.01;76.36
72921;BME280;61064;51.654;5.476;2022-12-29T09:04:09;100152.72;;;10.91;76.44
72921;BME280;61064;51.654;5.476;2022-12-29T09:06:35;100150.06;;;10.89;76.19
72921;BME280;61064;51.654;5.476;2022-12-29T09:09:00;100157.97;;;10.98;76.14
72921;BME280;61064;51.654;5.476;2022-12-29T09:11:26;100161.53;;;11.02;76.06
72921;BME280;61064;51.654;5.476;2022-12-29T09:13:52;100172.16;;;11.00;76.04
72921;BME280;61064;51.654;5.476;2022-12-29T09:16:20;100159.78;;;10.95;76.04
72921;BME280;61064;51.654;5.476;2022-12-29T09:18:46;100131.50;;;10.77;75.87
72921;BME280;61064;51.654;5.476;2022-12-29T09:21:12;100163.34;;;10.97;75.94
72921;BME280;61064;51.654;5.476;2022-12-29T09:23:38;100191.69;;;11.02;75.79
72921;BME280;61064;51.654;5.476;2022-12-29T09:26:04;100181.91;;;11.07;75.78
72921;BME280;61064;51.654;5.476;2022-12-29T09:28:30;100150.09;;;10.84;75.79
72921;BME280;61064;51.654;5.476;2022-12-29T09:30:57;100160.69;;;10.91;75.73
72921;BME280;61064;51.654;5.476;2022-12-29T09:33:22;100182.00;;;10.92;75.92
72921;BME280;61064;51.654;5.476;2022-12-29T09:35:53;100216.50;;;11.06;76.02
72921;BME280;61064;51.654;5.476;2022-12-29T09:38:18;100176.72;;;10.80;76.10
72921;BME280;61064;51.654;5.476;2022-12-29T09:40:50;100217.41;;;10.99;76.43
72921;BME280;61064;51.654;5.476;2022-12-29T09:43:50;100215.69;;;10.89;76.33
72921;BME280;61064;51.654;5.476;2022-12-29T09:48:50;100206.00;;;10.77;77.06
72921;BME280;61064;51.654;5.476;2022-12-29T09:51:19;100237.09;;;10.67;77.35
72921;BME280;61064;51.654;5.476;2022-12-29T09:54:50;100230.91;;;10.55;77.75
72921;BME280;61064;51.654;5.476;2022-12-29T09:56:56;100236.25;;;10.52;78.21
72921;BME280;61064;51.654;5.476;2022-12-29T09:59:39;100243.34;;;10.48;78.59
72921;BME280;61064;51.654;5.476;2022-12-29T10:04:43;100258.47;;;10.34;78.93
72921;BME280;61064;51.654;5.476;2022-12-29T10:07:17;100283.28;;;10.30;79.47
72921;BME280;61064;51.654;5.476;2022-12-29T10:18:24;100295.69;;;10.13;80.37
72921;BME280;61064;51.654;5.476;2022-12-29T10:21:08;100290.34;;;10.07;80.52
72921;BME280;61064;51.654;5.476;2022-12-29T10:23:42;100300.09;;;10.06;80.87
72921;BME280;61064;51.654;5.476;2022-12-29T10:26:15;100304.53;;;9.99;81.23
72921;BME280;61064;51.654;5.476;2022-12-29T10:28:46;100285.03;;;9.82;81.29
72921;BME280;61064;51.654;5.476;2022-12-29T10:31:23;100316.03;;;9.92;81.04
72921;BME280;61064;51.654;5.476;2022-12-29T10:33:51;100308.97;;;9.90;81.69
72921;BME280;61064;51.654;5.476;2022-12-29T10:36:25;100318.69;;;9.83;81.68
72921;BME280;61064;51.654;5.476;2022-12-29T10:41:35;100317.81;;;9.74;82.13
72921;BME280;61064;51.654;5.476;2022-12-29T10:44:02;100332.84;;;9.82;82.23
72921;BME280;61064;51.654;5.476;2022-12-29T10:46:31;100335.50;;;9.82;82.39
72921;BME280;61064;51.654;5.476;2022-12-29T10:48:58;100350.56;;;9.79;82.59
72921;BME280;61064;51.654;5.476;2022-12-29T10:51:30;100347.03;;;9.80;82.68
72921;BME280;61064;51.654;5.476;2022-12-29T10:56:52;100355.91;;;9.85;82.87
72921;BME280;61064;51.654;5.476;2022-12-29T10:59:22;100351.44;;;9.76;82.87
72921;BME280;61064;51.654;5.476;2022-12-29T11:05:19;100367.38;;;9.87;82.79
72921;BME280;61064;51.654;5.476;2022-12-29T11:07:27;100365.63;;;9.89;82.77
72921;BME280;61064;51.654;5.476;2022-12-29T11:09:55;100369.16;;;9.88;82.95
72921;BME280;61064;51.654;5.476;2022-12-29T11:12:28;100379.78;;;9.92;82.87
72921;BME280;61064;51.654;5.476;2022-12-29T11:15:12;100368.28;;;9.89;83.13
72921;BME280;61064;51.654;5.476;2022-12-29T11:20:40;100359.41;;;9.87;82.76
72921;BME280;61064;51.654;5.476;2022-12-29T11:23:31;100380.69;;;10.03;82.97
72921;BME280;61064;51.654;5.476;2022-12-29T11:28:35;100377.16;;;10.03;82.51
72921;BME280;61064;51.654;5.476;2022-12-29T11:31:02;100382.50;;;10.14;82.52
72921;BME280;61064;51.654;5.476;2022-12-29T11:33:29;100401.09;;;10.15;82.63
72921;BME280;61064;51.654;5.476;2022-12-29T11:36:04;100402.91;;;10.16;82.56
72921;BME280;61064;51.654;5.476;2022-12-29T11:38:35;100411.72;;;10.12;82.77
72921;BME280;61064;51.654;5.476;2022-12-29T11:41:02;100406.41;;;10.12;82.58
72921;BME280;61064;51.654;5.476;2022-12-29T11:43:38;100409.94;;;10.14;82.50
72921;BME280;61064;51.654;5.476;2022-12-29T11:46:05;100413.56;;;10.24;82.43
72921;BME280;61064;51.654;5.476;2022-12-29T11:48:39;100404.66;;;10.20;82.35
72921;BME280;61064;51.654;5.476;2022-12-29T11:51:06;100396.69;;;10.22;82.25
72921;BME280;61064;51.654;5.476;2022-12-29T11:53:43;100415.31;;;10.26;82.06
72921;BME280;61064;51.654;5.476;2022-12-29T11:56:17;100427.75;;;10.35;82.03
72921;BME280;61064;51.654;5.476;2022-12-29T11:58:45;100417.09;;;10.32;82.13
72921;BME280;61064;51.654;5.476;2022-12-29T12:01:20;100441.03;;;10.39;82.00
72921;BME280;61064;51.654;5.476;2022-12-29T12:04:15;100447.25;;;10.41;81.81
72921;BME280;61064;51.654;5.476;2022-12-29T12:06:45;100434.84;;;10.40;81.64
72921;BME280;61064;51.654;5.476;2022-12-29T12:09:19;100412.66;;;10.32;81.64
72921;BME280;61064;51.654;5.476;2022-12-29T12:11:51;100430.38;;;10.42;81.64
72921;BME280;61064;51.654;5.476;2022-12-29T12:14:34;100439.25;;;10.49;81.62
72921;BME280;61064;51.654;5.476;2022-12-29T12:17:14;100430.41;;;10.46;81.37
72921;BME280;61064;51.654;5.476;2022-12-29T12:19:49;100434.84;;;10.62;81.42
72921;BME280;61064;51.654;5.476;2022-12-29T12:22:29;100441.03;;;10.67;81.37
72921;BME280;61064;51.654;5.476;2022-12-29T12:27:51;100439.25;;;10.78;81.26
72921;BME280;61064;51.654;5.476;2022-12-29T12:30:20;100436.59;;;10.79;80.94
72921;BME280;61064;51.654;5.476;2022-12-29T12:33:05;100436.59;;;10.76;80.56
72921;BME280;61064;51.654;5.476;2022-12-29T12:41:06;100418.84;;;10.72;80.63
72921;BME280;61064;51.654;5.476;2022-12-29T12:44:18;100428.63;;;10.75;80.61
72921;BME280;61064;51.654;5.476;2022-12-29T12:58:09;100470.31;;;10.62;80.29
72921;BME280;61064;51.654;5.476;2022-12-29T13:01:08;100440.16;;;10.53;80.57
72921;BME280;61064;51.654;5.476;2022-12-29T13:06:12;100432.19;;;10.53;80.72
72921;BME280;61064;51.654;5.476;2022-12-29T13:14:05;100457.88;;;10.72;80.14
72921;BME280;61064;51.654;5.476;2022-12-29T13:16:57;100463.19;;;10.76;80.04
72921;BME280;61064;51.654;5.476;2022-12-29T13:22:34;100449.00;;;10.82;79.77
72921;BME280;61064;51.654;5.476;2022-12-29T13:25:31;100480.94;;;10.82;79.43
72921;BME280;61064;51.654;5.476;2022-12-29T13:28:05;100480.03;;;10.83;79.33
72921;BME280;61064;51.654;5.476;2022-12-29T13:33:30;100488.03;;;10.60;79.70
72921;BME280;61064;51.654;5.476;2022-12-29T13:36:05;100497.78;;;10.51;80.12
72921;BME280;61064;51.654;5.476;2022-12-29T13:38:43;100485.34;;;10.30;80.42
72921;BME280;61064;51.654;5.476;2022-12-29T13:41:18;100485.34;;;10.19;81.16
72921;BME280;61064;51.654;5.476;2022-12-29T13:43:46;100502.09;;;10.11;81.38
72921;BME280;61064;51.654;5.476;2022-12-29T13:46:18;100492.31;;;10.05;81.82
72921;BME280;61064;51.654;5.476;2022-12-29T13:48:51;100498.50;;;9.95;82.22
72921;BME280;61064;51.654;5.476;2022-12-29T13:51:19;100509.13;;;9.93;82.48
72921;BME280;61064;51.654;5.476;2022-12-29T13:56:51;100487.81;;;9.77;82.69
72921;BME280;61064;51.654;5.476;2022-12-29T13:59:36;100491.38;;;9.80;83.14
72921;BME280;61064;51.654;5.476;2022-12-29T14:02:23;100505.53;;;9.79;82.99
72921;BME280;61064;51.654;5.476;2022-12-29T14:05:01;100496.63;;;9.70;83.18
72921;BME280;61064;51.654;5.476;2022-12-29T14:07:28;100505.50;;;9.73;83.13
72921;BME280;61064;51.654;5.476;2022-12-29T14:09:55;100509.03;;;9.75;83.35
72921;BME280;61064;51.654;5.476;2022-12-29T14:17:33;100502.81;;;9.67;83.35
72921;BME280;61064;51.654;5.476;2022-12-29T14:19:59;100515.22;;;9.68;83.66
72921;BME280;61064;51.654;5.476;2022-12-29T14:22:26;100504.59;;;9.68;83.67
72921;BME280;61064;51.654;5.476;2022-12-29T14:24:52;100486.81;;;9.55;83.44
72921;BME280;61064;51.654;5.476;2022-12-29T14:29:50;100518.78;;;9.73;83.70
72921;BME280;61064;51.654;5.476;2022-12-29T14:34:57;100500.16;;;9.66;83.61
72921;BME280;61064;51.654;5.476;2022-12-29T14:37:30;100508.13;;;9.67;83.73
72921;BME280;61064;51.654;5.476;2022-12-29T14:40:06;100521.44;;;9.69;83.84
72921;BME280;61064;51.654;5.476;2022-12-29T14:42:39;100510.78;;;9.63;83.72
72921;BME280;61064;51.654;5.476;2022-12-29T14:45:27;100521.41;;;9.66;84.04
72921;BME280;61064;51.654;5.476;2022-12-29T14:47:53;100507.19;;;9.54;83.89
72921;BME280;61064;51.654;5.476;2022-12-29T14:50:25;100532.00;;;9.61;83.87
72921;BME280;61064;51.654;5.476;2022-12-29T14:52:52;100536.44;;;9.57;84.10
72921;BME280;61064;51.654;5.476;2022-12-29T14:55:41;100544.38;;;9.56;84.22